This is the latest recevied weather packets stored in our database for station/object 9W2RUT-G. If no packets are shown the sender has not sent any weather packets the latest 10 day(s).
| Time | Temp. | Humidity | Pressure | Rain* | Wind** | Luminosity | Snow |
|---|---|---|---|---|---|---|---|
| 1777584640 | 23.89° C | 30% | 1011.7 hPa | - | - | - | - |
| 1777583740 | 23.89° C | 30% | 1011.8 hPa | - | - | - | - |
| 1777582840 | 23.89° C | 30% | 1012 hPa | - | - | - | - |
| 1777581939 | 23.89° C | 30% | 1012 hPa | - | - | - | - |
| 1777581039 | 23.89° C | 32% | 1012.1 hPa | - | - | - | - |
| 1777580138 | 23.89° C | 33% | 1011.9 hPa | - | - | - | - |
| 1777579237 | 24.44° C | 34% | 1012.3 hPa | - | - | - | - |
| 1777578336 | 27.22° C | 29% | 1012.5 hPa | - | - | - | - |
| 1777577436 | 23.89° C | 35% | 1012.8 hPa | - | - | - | - |
| 1777576536 | 24.44° C | 33% | 1013 hPa | - | - | - | - |
| 1777575635 | 24.44° C | 31% | 1012.8 hPa | - | - | - | - |
| 1777574735 | 24.44° C | 29% | 1012.9 hPa | - | - | - | - |
| 1777573835 | 23.89° C | 29% | 1013.3 hPa | - | - | - | - |
| 1777572935 | 24.44° C | 29% | 1013.7 hPa | - | - | - | - |
| 1777572034 | 24.44° C | 29% | 1013.8 hPa | - | - | - | - |
| 1777571134 | 24.44° C | 29% | 1014 hPa | - | - | - | - |
| 1777570233 | 24.44° C | 29% | 1014.2 hPa | - | - | - | - |
| 1777569333 | 25° C | 30% | 1014.3 hPa | - | - | - | - |
| 1777568432 | 25° C | 31% | 1014.3 hPa | - | - | - | - |
| 1777567532 | 25° C | 32% | 1014.3 hPa | - | - | - | - |
| 1777566631 | 25.56° C | 33% | 1014.3 hPa | - | - | - | - |
| 1777565730 | 25.56° C | 34% | 1014.4 hPa | - | - | - | - |
| 1777564865 | 23.89° C | 40% | 1014.4 hPa | - | - | - | - |
| 1777564829 | 23.89° C | 40% | 1014.4 hPa | - | - | - | - |
| 1777563946 | 26.11° C | 38% | 1014.4 hPa | - | - | - | - |
* Rain since midnight (hover to see other rain measurements)
** Current wind speed in m/s (hover to see current wind gust speed)